Gurabo, PR (00778)

4:04 AM AST on June 29, 2017 (GMT -0400)
Gurabo PR 00778 | | Change Station

Elev 203 ft 18.25 °N, 65.98 °W | Updated 6 seconds ago

Partly Cloudy
Partly Cloudy
75.6 °F
Feels Like 75 °F
N
0.0
Wind Variable Wind from SSE
Gusts 0.0 mph

Today
High -- | Low -- °F
--% Chance of Precip.
Yesterday
High -- | Low -- °F
Precip. -- in
Pressure 30.01 in
Visibility 10.0 miles
Clouds Few 2200 ft
Scattered Clouds 2800 ft
Scattered Clouds 3500 ft
Heat Index 75 °F
Dew Point 72 °F
Humidity 90%
Rainfall 0.00 in
Snow Depth Not available.
5:51 AM 7:03 PM
Waxing Crescent, 33% visible
METAR TJSJ 290756Z 08011KT 10SM FEW022 SCT028 SCT035 27/23 A3001 RMK AO2 SLP161 T02720233
Pressure 30.01 in
Visibility 10.0 miles
Clouds Few 2200 ft
Scattered Clouds 2800 ft
Scattered Clouds 3500 ft
Heat Index 75 °F
Dew Point 72 °F
Humidity 90%
Rainfall 0.00 in
Snow Depth Not available.
5:51 AM 7:03 PM
Waxing Crescent, 33% visible
METAR TJSJ 290756Z 08011KT 10SM FEW022 SCT028 SCT035 27/23 A3001 RMK AO2 SLP161 T02720233

Get Severe Weather Alerts

Thanks for signing up!

Be on the lookout for a verification email in your inbox.

You'll start receiving the daily forecast at 6 AM.

×

10-Day Weather Forecast

Almanac

Astronomy

Jun. 29, 2017 Rise Set
Actual Time
Civil Twilight
Nautical Twilight
Astronomical Twilight
Moon
Length of Visible Light
Length of Day
Tomorrow will be .
, % of the Moon is Illuminated

Today's Extremes

State Highs State Lows

Community

WunderPhotos

Category 6

Welcome to Category 6. This is the collective home for Weather Underground's featured writeups by Dr. Jeff Masters (right), Bob Henson (left), Chris Burt, and other regular contributors.

Nearby

Air Quality

  Air Quality AQ Index Pollutant
Not available.

Snow Depth

Station Depth Elevation

Earthquake Activity

City Distance Mag. Time & Date
Minimum magnitude displayed is 2.5.

Coastal Water Temperatures

Place Temperature

Stations

Nearby Weather Stations

Station Location Temp. Windchill Dew Point Humidity Wind Precip. Elev Updated Type
                   

Watches & Warnings

There are currently no watches in effect.